Time;durP1;ratioP1;P1;durP2;ratioP2;P2;SDS_P1;SDS_P2;PMS_P1;PMS_P2;Temp;Humidity;BMP_temperature;BMP_pressure;BME280_temperature;BME280_humidity;BME280_pressure;Samples;Min_cycle;Max_cycle;Signal;HPM_P1;HPM_P2
2023/01/12 00:01:22;;;;;;;10.07;2.40;;;;;;;;;;5034248;28;20108;-74
2023/01/12 00:03:49;;;;;;;13.40;4.28;;;;;;;;;;5016670;28;20026;-75
2023/01/12 00:06:15;;;;;;;10.73;3.03;;;;;;;;;;5034560;28;20537;-74
2023/01/12 00:08:41;;;;;;;10.50;2.40;;;;;;;;;;5045692;28;20099;-75
2023/01/12 00:11:07;;;;;;;13.15;2.65;;;;;;;;;;5039171;28;20037;-75
2023/01/12 00:13:33;;;;;;;10.05;2.33;;;;;;;;;;5034240;28;20468;-75
2023/01/12 00:18:46;;;;;;;13.40;3.53;;;;;;;;;;5045769;28;20060;-74
2023/01/12 00:21:12;;;;;;;6.65;2.28;;;;;;;;;;5020560;28;20043;-73
2023/01/12 00:23:38;;;;;;;7.72;1.90;;;;;;;;;;5016011;28;20107;-74
2023/01/12 00:26:08;;;;;;;10.85;2.83;;;;;;;;;;5033949;28;20048;-74
2023/01/12 00:28:37;;;;;;;6.93;2.10;;;;;;;;;;5033480;28;20024;-74
2023/01/12 00:31:06;;;;;;;7.70;1.95;;;;;;;;;;5033692;28;20026;-74
2023/01/12 00:33:33;;;;;;;6.45;1.63;;;;;;;;;;5033485;28;20056;-73
2023/01/12 00:36:07;;;;;;;10.20;2.50;;;;;;;;;;5034016;28;20029;-73
2023/01/12 00:38:37;;;;;;;8.77;2.88;;;;;;;;;;5033407;28;20113;-74
2023/01/12 00:41:10;;;;;;;9.30;2.70;;;;;;;;;;5033554;28;20033;-73
2023/01/12 00:46:31;;;;;;;9.77;2.88;;;;;;;;;;5033797;28;20469;-73
2023/01/12 00:48:57;;;;;;;6.93;2.25;;;;;;;;;;5033815;28;20018;-73
2023/01/12 00:51:23;;;;;;;9.27;2.58;;;;;;;;;;5033603;28;20220;-74
2023/01/12 00:53:49;;;;;;;9.07;2.20;;;;;;;;;;5033308;28;20519;-74
2023/01/12 00:56:16;;;;;;;11.88;2.90;;;;;;;;;;5033290;28;20428;-74
2023/01/12 00:58:42;;;;;;;8.30;2.15;;;;;;;;;;5032717;28;20034;-74
2023/01/12 01:01:08;;;;;;;12.00;3.13;;;;;;;;;;5033423;28;20052;-74
2023/01/12 01:03:35;;;;;;;10.00;2.30;;;;;;;;;;5033179;28;20026;-74
2023/01/12 01:06:02;;;;;;;7.78;3.28;;;;;;;;;;5033288;28;20025;-74
2023/01/12 01:08:28;;;;;;;8.10;2.15;;;;;;;;;;5033093;28;20067;-74
2023/01/12 01:11:01;;;;;;;7.70;1.90;;;;;;;;;;5038784;28;20037;-73
2023/01/12 01:13:27;;;;;;;14.25;2.75;;;;;;;;;;5033008;28;20507;-74
2023/01/12 01:15:53;;;;;;;6.88;1.73;;;;;;;;;;5032924;28;20492;-74
2023/01/12 01:18:20;;;;;;;10.65;2.20;;;;;;;;;;5041098;28;20028;-74
2023/01/12 01:20:47;;;;;;;8.40;2.10;;;;;;;;;;5022992;28;20422;-74
2023/01/12 01:23:13;;;;;;;5.45;1.63;;;;;;;;;;5014946;28;20456;-74
2023/01/12 01:25:39;;;;;;;5.68;2.33;;;;;;;;;;5032967;28;20513;-74
2023/01/12 01:28:05;;;;;;;8.25;1.80;;;;;;;;;;5036750;28;20029;-74
2023/01/12 01:30:31;;;;;;;10.57;2.38;;;;;;;;;;5062302;28;20058;-72
2023/01/12 01:32:57;;;;;;;9.25;3.33;;;;;;;;;;5056421;28;20028;-73
2023/01/12 01:35:23;;;;;;;9.13;2.25;;;;;;;;;;5033371;28;20041;-73
2023/01/12 01:37:49;;;;;;;7.60;2.15;;;;;;;;;;5047081;28;20025;-74
2023/01/12 01:40:15;;;;;;;9.00;1.58;;;;;;;;;;5039701;28;20064;-75
2023/01/12 01:42:41;;;;;;;7.05;2.25;;;;;;;;;;5051759;28;20047;-74
2023/01/12 01:45:10;;;;;;;8.55;2.38;;;;;;;;;;5041510;28;20097;-73
2023/01/12 01:47:39;;;;;;;7.50;2.22;;;;;;;;;;5031150;28;20033;-74
2023/01/12 01:50:07;;;;;;;5.78;2.55;;;;;;;;;;5037712;28;20032;-76
2023/01/12 01:52:35;;;;;;;8.95;1.95;;;;;;;;;;5051883;28;20028;-74
2023/01/12 01:55:06;;;;;;;8.18;2.45;;;;;;;;;;5051199;28;20029;-74
2023/01/12 01:57:50;;;;;;;14.52;3.53;;;;;;;;;;5051126;28;20391;-74
2023/01/12 02:00:16;;;;;;;8.00;2.55;;;;;;;;;;5051402;28;20084;-74
2023/01/12 02:02:43;;;;;;;7.43;1.80;;;;;;;;;;5037001;28;20037;-74
2023/01/12 02:05:10;;;;;;;12.52;2.00;;;;;;;;;;5031286;28;20029;-74
2023/01/12 02:07:37;;;;;;;11.10;2.28;;;;;;;;;;5049583;28;20033;-74
2023/01/12 02:10:03;;;;;;;4.93;1.50;;;;;;;;;;5027148;28;20167;-74
2023/01/12 02:18:02;;;;;;;4.15;1.10;;;;;;;;;;5051638;28;20047;-73
2023/01/12 02:20:40;;;;;;;5.97;1.55;;;;;;;;;;5051927;28;20025;-73
2023/01/12 02:23:09;;;;;;;5.32;1.52;;;;;;;;;;5036969;28;20533;-74
2023/01/12 02:25:38;;;;;;;10.35;1.75;;;;;;;;;;5031744;28;20049;-72
2023/01/12 02:28:22;;;;;;;10.30;1.60;;;;;;;;;;5037600;28;20021;-73
2023/01/12 02:31:12;;;;;;;6.63;2.25;;;;;;;;;;5039464;28;20032;-71
2023/01/12 02:33:47;;;;;;;12.25;2.05;;;;;;;;;;5031663;28;20024;-73
2023/01/12 02:36:19;;;;;;;7.10;1.48;;;;;;;;;;5031793;28;20030;-72
2023/01/12 02:38:47;;;;;;;7.65;2.42;;;;;;;;;;5031355;28;20079;-73
2023/01/12 02:44:18;;;;;;;5.97;1.33;;;;;;;;;;5031593;28;20160;-74
2023/01/12 02:46:46;;;;;;;6.68;2.22;;;;;;;;;;5034004;28;20028;-73
2023/01/12 02:49:14;;;;;;;7.43;1.88;;;;;;;;;;5031345;28;20022;-73
2023/01/12 02:51:46;;;;;;;4.80;1.58;;;;;;;;;;5031412;28;20017;-73
2023/01/12 02:54:17;;;;;;;9.70;1.73;;;;;;;;;;5013691;28;20414;-73
2023/01/12 02:56:51;;;;;;;6.40;1.85;;;;;;;;;;5031346;28;20036;-73
2023/01/12 02:59:28;;;;;;;9.00;2.17;;;;;;;;;;5031219;28;20030;-74
2023/01/12 03:01:57;;;;;;;6.72;1.60;;;;;;;;;;5031374;28;20121;-74
2023/01/12 03:04:24;;;;;;;8.07;1.70;;;;;;;;;;5040154;28;20024;-73
2023/01/12 03:06:56;;;;;;;8.60;2.42;;;;;;;;;;5050559;28;20355;-73
2023/01/12 03:09:24;;;;;;;9.73;2.10;;;;;;;;;;5050268;28;20107;-73
2023/01/12 03:11:53;;;;;;;9.50;2.35;;;;;;;;;;5030976;28;20026;-74
2023/01/12 03:14:20;;;;;;;9.93;2.40;;;;;;;;;;5031522;28;20059;-73
2023/01/12 03:16:46;;;;;;;7.18;2.50;;;;;;;;;;5031859;28;20427;-73
2023/01/12 03:19:20;;;;;;;5.82;1.60;;;;;;;;;;5044746;28;20474;-73
2023/01/12 03:21:49;;;;;;;10.70;2.28;;;;;;;;;;5013559;28;20041;-73
2023/01/12 03:24:19;;;;;;;9.10;2.45;;;;;;;;;;5021201;28;20436;-73
2023/01/12 03:26:50;;;;;;;9.40;2.17;;;;;;;;;;5051215;28;20487;-73
2023/01/12 03:29:16;;;;;;;6.47;1.60;;;;;;;;;;5050915;28;20047;-73
2023/01/12 03:31:42;;;;;;;5.43;1.67;;;;;;;;;;5050892;28;20426;-73
2023/01/12 03:34:08;;;;;;;4.63;1.33;;;;;;;;;;5044385;28;20036;-73
2023/01/12 03:37:00;;;;;;;8.77;2.13;;;;;;;;;;5041489;28;20104;-72
2023/01/12 03:39:35;;;;;;;12.25;2.15;;;;;;;;;;5007817;28;20029;-73
2023/01/12 03:42:04;;;;;;;8.98;1.98;;;;;;;;;;5030932;28;20025;-72
2023/01/12 03:44:36;;;;;;;6.82;2.13;;;;;;;;;;5040491;28;20107;-72
2023/01/12 03:47:04;;;;;;;7.35;2.30;;;;;;;;;;5050606;28;20067;-74
2023/01/12 03:49:43;;;;;;;6.88;2.05;;;;;;;;;;5032802;28;20052;-73
2023/01/12 03:52:11;;;;;;;6.88;2.03;;;;;;;;;;5037836;28;20040;-73
2023/01/12 03:54:38;;;;;;;6.20;1.90;;;;;;;;;;5032929;28;20139;-73
2023/01/12 03:57:05;;;;;;;7.38;2.53;;;;;;;;;;5036819;28;20642;-72
2023/01/12 03:59:31;;;;;;;5.10;1.75;;;;;;;;;;5048990;28;20056;-73
2023/01/12 04:01:57;;;;;;;15.15;2.65;;;;;;;;;;5051057;28;20384;-74
2023/01/12 04:04:23;;;;;;;6.68;2.00;;;;;;;;;;5051194;28;20108;-74
2023/01/12 04:06:49;;;;;;;5.93;1.50;;;;;;;;;;5051490;28;20072;-74
2023/01/12 04:09:15;;;;;;;9.68;2.40;;;;;;;;;;5074387;28;20033;-75
2023/01/12 04:14:26;;;;;;;6.75;1.65;;;;;;;;;;5054453;28;20028;-73
2023/01/12 04:16:52;;;;;;;10.35;2.13;;;;;;;;;;5013781;28;20018;-72
2023/01/12 04:19:18;;;;;;;9.57;2.17;;;;;;;;;;5048132;28;20031;-73
2023/01/12 04:24:29;;;;;;;8.75;1.95;;;;;;;;;;5034049;28;20372;-73
2023/01/12 04:26:55;;;;;;;10.90;2.55;;;;;;;;;;5034216;28;20025;-73
2023/01/12 04:29:21;;;;;;;12.38;1.85;;;;;;;;;;5033891;28;20083;-72
2023/01/12 04:31:47;;;;;;;10.30;2.90;;;;;;;;;;5020151;28;20511;-74
2023/01/12 04:34:13;;;;;;;10.73;2.67;;;;;;;;;;5053989;28;20063;-73
2023/01/12 04:36:41;;;;;;;10.18;1.75;;;;;;;;;;5053872;28;20029;-73
2023/01/12 04:39:07;;;;;;;7.53;1.70;;;;;;;;;;5053726;28;20028;-73
2023/01/12 04:41:33;;;;;;;9.75;1.77;;;;;;;;;;5035859;28;20021;-75
2023/01/12 04:43:59;;;;;;;12.80;2.28;;;;;;;;;;5054257;28;20341;-75
2023/01/12 04:46:25;;;;;;;8.48;2.15;;;;;;;;;;5054967;28;20021;-75
2023/01/12 04:48:51;;;;;;;3.20;1.02;;;;;;;;;;5056646;28;20024;-75
2023/01/12 04:51:17;;;;;;;10.27;2.08;;;;;;;;;;5054555;28;20027;-74
2023/01/12 04:53:43;;;;;;;12.32;2.83;;;;;;;;;;5055259;28;20115;-74
2023/01/12 04:56:09;;;;;;;8.48;1.75;;;;;;;;;;5054998;28;20155;-75
2023/01/12 04:58:36;;;;;;;8.75;2.00;;;;;;;;;;5054220;28;20025;-74
2023/01/12 05:01:12;;;;;;;8.70;2.08;;;;;;;;;;5053777;28;20423;-74
2023/01/12 05:03:38;;;;;;;7.00;1.83;;;;;;;;;;5035854;28;20071;-75
2023/01/12 05:06:04;;;;;;;5.45;1.77;;;;;;;;;;5035942;28;20060;-74
2023/01/12 05:11:15;;;;;;;8.65;2.63;;;;;;;;;;5033512;28;20064;-74
2023/01/12 05:13:41;;;;;;;10.27;1.98;;;;;;;;;;5033905;28;20024;-74
2023/01/12 05:16:08;;;;;;;8.85;2.20;;;;;;;;;;5015381;28;20068;-74
2023/01/12 05:18:34;;;;;;;6.68;1.85;;;;;;;;;;5040839;28;20044;-74
2023/01/12 05:21:00;;;;;;;9.18;2.45;;;;;;;;;;5039260;28;20025;-74
2023/01/12 05:23:26;;;;;;;11.82;1.92;;;;;;;;;;5016146;28;20076;-74
2023/01/12 05:25:52;;;;;;;10.52;2.33;;;;;;;;;;5053186;28;20047;-74
2023/01/12 05:28:18;;;;;;;8.40;3.15;;;;;;;;;;5053012;28;20474;-74
2023/01/12 05:30:44;;;;;;;9.88;2.38;;;;;;;;;;5035292;28;20017;-73
2023/01/12 05:33:18;;;;;;;10.65;2.30;;;;;;;;;;5035046;28;20128;-74
2023/01/12 05:35:44;;;;;;;5.43;1.80;;;;;;;;;;5053209;28;20028;-74
2023/01/12 05:38:10;;;;;;;8.27;2.53;;;;;;;;;;5052756;28;20117;-73
2023/01/12 05:40:36;;;;;;;14.32;3.05;;;;;;;;;;5052976;28;20108;-74
2023/01/12 05:45:47;;;;;;;12.80;2.30;;;;;;;;;;5053062;28;20028;-74
2023/01/12 05:48:13;;;;;;;7.13;2.33;;;;;;;;;;5052588;28;20368;-74
2023/01/12 05:50:39;;;;;;;9.07;1.92;;;;;;;;;;5053078;28;20056;-75
2023/01/12 05:53:05;;;;;;;17.13;2.88;;;;;;;;;;5053200;28;20029;-74
2023/01/12 05:55:31;;;;;;;10.32;2.30;;;;;;;;;;5052911;28;20116;-73
2023/01/12 05:57:58;;;;;;;7.75;2.30;;;;;;;;;;5035252;28;20044;-74
2023/01/12 06:00:24;;;;;;;7.93;2.10;;;;;;;;;;5026731;28;20110;-73
2023/01/12 06:02:50;;;;;;;10.25;2.25;;;;;;;;;;5032665;28;20104;-75
2023/01/12 06:05:16;;;;;;;8.40;2.45;;;;;;;;;;5032848;28;20109;-75
2023/01/12 06:07:42;;;;;;;15.43;2.13;;;;;;;;;;5032076;28;20104;-75
2023/01/12 06:10:09;;;;;;;8.20;1.80;;;;;;;;;;5020366;28;20033;-73
2023/01/12 06:15:19;;;;;;;7.50;2.13;;;;;;;;;;5048608;28;20031;-75
2023/01/12 06:17:45;;;;;;;9.02;2.45;;;;;;;;;;5033927;28;20155;-73
2023/01/12 06:20:15;;;;;;;5.57;1.60;;;;;;;;;;5045428;28;20049;-71
2023/01/12 06:22:41;;;;;;;10.05;2.33;;;;;;;;;;5031944;28;20026;-73
2023/01/12 06:25:17;;;;;;;8.60;2.13;;;;;;;;;;5031794;28;20022;-71
2023/01/12 06:27:43;;;;;;;6.35;1.95;;;;;;;;;;5031573;28;20091;-74
2023/01/12 06:30:09;;;;;;;6.93;2.10;;;;;;;;;;5038674;28;20475;-74
2023/01/12 06:32:35;;;;;;;9.15;2.15;;;;;;;;;;5051629;28;20052;-73
2023/01/12 06:35:02;;;;;;;8.48;1.92;;;;;;;;;;5052036;28;20411;-72
2023/01/12 06:37:29;;;;;;;8.70;1.55;;;;;;;;;;5033568;28;20053;-74
2023/01/12 06:39:55;;;;;;;11.30;2.47;;;;;;;;;;5052183;28;20368;-73
2023/01/12 06:42:27;;;;;;;11.90;2.25;;;;;;;;;;5051901;28;20017;-76
2023/01/12 06:44:53;;;;;;;6.80;1.83;;;;;;;;;;5051942;28;20036;-73
2023/01/12 06:47:19;;;;;;;12.23;2.10;;;;;;;;;;5052804;28;20112;-74
2023/01/12 06:49:46;;;;;;;8.50;1.77;;;;;;;;;;5036529;28;20124;-74
2023/01/12 06:52:12;;;;;;;8.27;2.15;;;;;;;;;;5052980;28;20025;-70
2023/01/12 06:54:38;;;;;;;6.60;1.73;;;;;;;;;;5053929;28;20071;-72
2023/01/12 06:57:04;;;;;;;10.43;1.98;;;;;;;;;;5035679;28;20036;-71
2023/01/12 06:59:30;;;;;;;6.63;1.95;;;;;;;;;;5036861;28;20029;-73
2023/01/12 07:01:56;;;;;;;7.70;2.00;;;;;;;;;;5037745;28;20044;-74
2023/01/12 07:04:22;;;;;;;10.30;1.92;;;;;;;;;;5037678;28;20024;-74
2023/01/12 07:06:48;;;;;;;5.63;1.50;;;;;;;;;;5056578;28;20035;-74
2023/01/12 07:09:14;;;;;;;6.90;2.15;;;;;;;;;;5054497;28;20055;-74
2023/01/12 07:11:40;;;;;;;7.18;2.15;;;;;;;;;;5034979;28;20033;-73
2023/01/12 07:14:06;;;;;;;9.25;1.98;;;;;;;;;;5034055;28;20034;-73
2023/01/12 07:16:32;;;;;;;11.50;2.35;;;;;;;;;;5034016;28;20021;-73
2023/01/12 07:18:58;;;;;;;7.10;1.40;;;;;;;;;;5047730;28;20024;-73
2023/01/12 07:21:24;;;;;;;6.72;1.73;;;;;;;;;;5039885;28;20061;-73
2023/01/12 07:23:50;;;;;;;8.18;1.50;;;;;;;;;;5054343;28;20030;-70
2023/01/12 07:26:16;;;;;;;6.70;1.63;;;;;;;;;;5049311;28;20013;-74
2023/01/12 07:28:43;;;;;;;8.05;2.22;;;;;;;;;;5058629;28;20024;-72
2023/01/12 07:31:09;;;;;;;9.68;2.13;;;;;;;;;;5046818;28;20028;-74
2023/01/12 07:33:36;;;;;;;9.10;1.55;;;;;;;;;;5023982;28;20021;-74
2023/01/12 07:36:02;;;;;;;8.25;2.38;;;;;;;;;;5037698;28;20396;-75
2023/01/12 07:38:29;;;;;;;3.85;1.75;;;;;;;;;;5030083;28;20226;-74
2023/01/12 07:40:59;;;;;;;4.55;1.73;;;;;;;;;;5035110;28;20108;-74
2023/01/12 07:43:25;;;;;;;7.85;2.22;;;;;;;;;;5030626;28;20550;-74
2023/01/12 07:45:51;;;;;;;6.40;1.60;;;;;;;;;;5031272;28;20040;-71
2023/01/12 07:48:17;;;;;;;10.38;2.63;;;;;;;;;;5038753;28;20021;-73
2023/01/12 07:50:43;;;;;;;4.00;1.55;;;;;;;;;;5051678;28;20025;-74
2023/01/12 07:53:09;;;;;;;8.35;2.03;;;;;;;;;;5034691;28;20029;-74
2023/01/12 07:55:38;;;;;;;10.98;2.30;;;;;;;;;;5057848;28;20060;-74
2023/01/12 07:58:06;;;;;;;8.40;1.92;;;;;;;;;;5045282;28;20501;-74
2023/01/12 08:00:32;;;;;;;15.18;3.28;;;;;;;;;;5044544;28;20030;-74
2023/01/12 08:03:05;;;;;;;8.88;1.52;;;;;;;;;;5045210;28;20037;-75
2023/01/12 08:05:31;;;;;;;6.95;1.77;;;;;;;;;;5050355;28;20176;-75
2023/01/12 08:07:57;;;;;;;9.70;2.60;;;;;;;;;;5018145;28;20044;-72
2023/01/12 08:10:23;;;;;;;8.07;1.70;;;;;;;;;;5048848;28;20021;-75
2023/01/12 08:12:50;;;;;;;10.32;2.88;;;;;;;;;;5079349;22;20059;-73
2023/01/12 08:15:16;;;;;;;9.07;2.35;;;;;;;;;;5053299;28;20471;-74
2023/01/12 08:17:46;;;;;;;5.90;2.08;;;;;;;;;;5035134;28;20067;-76
2023/01/12 08:20:22;;;;;;;6.80;1.70;;;;;;;;;;5054152;28;20441;-75
2023/01/12 08:22:50;;;;;;;7.07;2.25;;;;;;;;;;5053878;28;20029;-75
2023/01/12 08:25:20;;;;;;;10.73;2.58;;;;;;;;;;5053842;28;20051;-76
2023/01/12 08:27:49;;;;;;;10.82;2.00;;;;;;;;;;5053373;28;20017;-75
2023/01/12 08:30:16;;;;;;;5.32;2.08;;;;;;;;;;5046171;28;20095;-75
2023/01/12 08:32:44;;;;;;;6.43;1.77;;;;;;;;;;5033780;28;20105;-75
2023/01/12 08:35:11;;;;;;;7.65;2.40;;;;;;;;;;5016153;28;20504;-76
2023/01/12 08:37:37;;;;;;;8.77;2.15;;;;;;;;;;5033507;28;20068;-76
2023/01/12 08:40:04;;;;;;;7.80;2.05;;;;;;;;;;5033745;28;20084;-76
2023/01/12 08:42:30;;;;;;;4.18;1.67;;;;;;;;;;5016187;28;20032;-75
2023/01/12 08:44:56;;;;;;;10.48;2.25;;;;;;;;;;5033466;28;20104;-76
2023/01/12 08:47:26;;;;;;;7.55;1.83;;;;;;;;;;5015860;28;20079;-76
2023/01/12 08:49:52;;;;;;;8.02;1.65;;;;;;;;;;5033697;28;20028;-75
2023/01/12 08:52:18;;;;;;;12.00;1.65;;;;;;;;;;5033904;28;20022;-76
2023/01/12 08:54:44;;;;;;;5.00;1.38;;;;;;;;;;5016075;28;20422;-76
2023/01/12 08:57:10;;;;;;;8.82;1.95;;;;;;;;;;5033331;28;20021;-74
2023/01/12 08:59:36;;;;;;;7.55;1.52;;;;;;;;;;5015471;28;20483;-75
2023/01/12 09:02:03;;;;;;;7.57;2.15;;;;;;;;;;5033361;28;20116;-75
2023/01/12 09:04:29;;;;;;;7.05;1.67;;;;;;;;;;5032043;28;20045;-75
2023/01/12 09:06:55;;;;;;;9.85;1.60;;;;;;;;;;5033015;28;20479;-76
2023/01/12 09:09:21;;;;;;;7.38;1.60;;;;;;;;;;5032789;28;20021;-76
2023/01/12 09:11:48;;;;;;;6.60;1.70;;;;;;;;;;5032841;28;20412;-75
2023/01/12 09:14:14;;;;;;;9.38;2.00;;;;;;;;;;5032985;28;20104;-75
2023/01/12 09:16:41;;;;;;;3.55;1.45;;;;;;;;;;5032853;28;20025;-76
2023/01/12 09:19:07;;;;;;;6.45;2.00;;;;;;;;;;5032879;28;20021;-76
2023/01/12 09:21:35;;;;;;;9.80;1.55;;;;;;;;;;5032772;28;20026;-75
2023/01/12 09:24:01;;;;;;;5.07;1.55;;;;;;;;;;5038432;28;20025;-74
2023/01/12 09:26:32;;;;;;;3.63;1.65;;;;;;;;;;5052400;28;20025;-75
2023/01/12 09:28:58;;;;;;;4.45;1.00;;;;;;;;;;5052479;28;20021;-75
2023/01/12 09:31:26;;;;;;;4.55;1.55;;;;;;;;;;5034331;28;20021;-74
2023/01/12 09:33:53;;;;;;;6.95;1.42;;;;;;;;;;5052836;28;20065;-75
2023/01/12 09:36:20;;;;;;;5.28;1.30;;;;;;;;;;5052503;28;20025;-75
2023/01/12 09:38:47;;;;;;;7.57;2.10;;;;;;;;;;5032309;28;20088;-76
2023/01/12 09:46:57;;;;;;;4.72;1.33;;;;;;;;;;5033255;28;20107;-76
2023/01/12 09:49:26;;;;;;;5.68;1.55;;;;;;;;;;5014242;28;20033;-75
2023/01/12 09:52:09;;;;;;;6.57;1.60;;;;;;;;;;5032212;28;20025;-75
2023/01/12 09:54:35;;;;;;;6.18;1.52;;;;;;;;;;5032626;28;20501;-75
2023/01/12 09:57:07;;;;;;;4.78;1.83;;;;;;;;;;5014145;28;20112;-75
2023/01/12 09:59:59;;;;;;;6.65;1.90;;;;;;;;;;5014037;28;20032;-75
2023/01/12 10:02:26;;;;;;;8.65;1.98;;;;;;;;;;5013682;28;20045;-75
2023/01/12 10:04:53;;;;;;;6.05;1.85;;;;;;;;;;5014835;28;20071;-75
2023/01/12 10:07:19;;;;;;;4.30;1.30;;;;;;;;;;5014449;28;20051;-75
2023/01/12 10:09:45;;;;;;;5.10;1.20;;;;;;;;;;5033954;28;20093;-74
2023/01/12 10:12:11;;;;;;;7.68;1.92;;;;;;;;;;5013947;28;20029;-76
2023/01/12 10:14:38;;;;;;;4.95;1.52;;;;;;;;;;5032122;28;20022;-76
2023/01/12 10:17:07;;;;;;;7.38;1.67;;;;;;;;;;5031968;28;20498;-74
2023/01/12 10:19:52;;;;;;;3.90;1.48;;;;;;;;;;5031554;28;20030;-75
2023/01/12 10:22:35;;;;;;;5.03;1.40;;;;;;;;;;5031013;28;20025;-76
2023/01/12 10:25:02;;;;;;;8.85;2.40;;;;;;;;;;5031524;28;20021;-76
2023/01/12 10:27:28;;;;;;;6.25;1.70;;;;;;;;;;5031528;28;20022;-74
2023/01/12 10:29:57;;;;;;;7.72;1.80;;;;;;;;;;5031496;28;20029;-73
2023/01/12 10:32:25;;;;;;;11.43;2.47;;;;;;;;;;5013547;28;20476;-75
2023/01/12 10:34:51;;;;;;;5.05;1.73;;;;;;;;;;5013881;28;20040;-75
2023/01/12 10:37:18;;;;;;;3.60;1.73;;;;;;;;;;5013347;28;20337;-76
2023/01/12 10:39:44;;;;;;;8.55;2.08;;;;;;;;;;5031234;28;20037;-75
2023/01/12 10:43:17;;;;;;;9.15;1.95;;;;;;;;;;5031186;28;20488;-74
2023/01/12 10:45:09;;;;;;;4.85;1.40;;;;;;;;;;5031055;28;20393;-75
2023/01/12 10:47:35;;;;;;;5.22;1.58;;;;;;;;;;5028932;28;20119;-74
2023/01/12 10:50:19;;;;;;;4.40;1.25;;;;;;;;;;5029521;28;20013;-75
2023/01/12 10:52:46;;;;;;;7.05;1.80;;;;;;;;;;5029497;28;20598;-76
2023/01/12 10:55:22;;;;;;;7.00;1.92;;;;;;;;;;5011746;28;20116;-75
2023/01/12 10:57:49;;;;;;;5.63;1.45;;;;;;;;;;5029226;28;20040;-75
2023/01/12 11:00:22;;;;;;;5.80;1.67;;;;;;;;;;5029697;28;20107;-75
2023/01/12 11:02:48;;;;;;;3.67;1.17;;;;;;;;;;5030814;28;20060;-75
2023/01/12 11:05:26;;;;;;;6.25;1.52;;;;;;;;;;5013556;28;20479;-76
2023/01/12 11:07:53;;;;;;;7.20;1.58;;;;;;;;;;5031096;28;20168;-75
2023/01/12 11:10:27;;;;;;;7.13;1.52;;;;;;;;;;5013731;28;20095;-77
2023/01/12 11:12:56;;;;;;;8.55;1.50;;;;;;;;;;5031263;28;20037;-75
2023/01/12 11:15:22;;;;;;;4.53;1.33;;;;;;;;;;5013469;28;20295;-76
2023/01/12 11:18:10;;;;;;;8.02;2.28;;;;;;;;;;5030375;28;20561;-75
2023/01/12 11:20:43;;;;;;;4.65;1.58;;;;;;;;;;5030995;28;20359;-75
2023/01/12 11:23:19;;;;;;;6.32;1.83;;;;;;;;;;5030665;28;20039;-76
2023/01/12 11:25:46;;;;;;;8.60;2.72;;;;;;;;;;5030858;28;20475;-76
2023/01/12 11:28:18;;;;;;;7.80;2.42;;;;;;;;;;5031791;28;20022;-76
2023/01/12 11:30:44;;;;;;;4.55;1.73;;;;;;;;;;5035004;28;20057;-76
2023/01/12 11:33:10;;;;;;;9.68;2.33;;;;;;;;;;5034609;28;20491;-77
2023/01/12 11:35:55;;;;;;;4.75;1.92;;;;;;;;;;5034740;28;20040;-75
2023/01/12 11:38:24;;;;;;;2.88;1.02;;;;;;;;;;5016920;28;20057;-76
2023/01/12 11:40:52;;;;;;;3.90;1.25;;;;;;;;;;5017039;28;20060;-75
2023/01/12 11:46:11;;;;;;;4.70;1.70;;;;;;;;;;5034648;28;20113;-75
2023/01/12 11:49:01;;;;;;;3.50;1.00;;;;;;;;;;5016485;28;20040;-75
2023/01/12 11:51:27;;;;;;;3.28;1.00;;;;;;;;;;4972050;28;20036;-75
2023/01/12 11:53:54;;;;;;;3.00;1.23;;;;;;;;;;5017138;28;20395;-77
2023/01/12 11:56:28;;;;;;;5.63;2.10;;;;;;;;;;5016693;28;20116;-76
2023/01/12 11:59:00;;;;;;;3.35;1.15;;;;;;;;;;5016435;28;20030;-75
2023/01/12 12:01:32;;;;;;;4.32;1.25;;;;;;;;;;5034243;28;20028;-75
2023/01/12 12:03:59;;;;;;;3.15;1.17;;;;;;;;;;5034414;28;20075;-76
2023/01/12 12:06:28;;;;;;;3.53;1.00;;;;;;;;;;5016774;28;20025;-76
2023/01/12 12:09:05;;;;;;;3.83;1.00;;;;;;;;;;5033621;28;20440;-76
2023/01/12 12:11:39;;;;;;;3.95;0.98;;;;;;;;;;5034397;28;20057;-76
2023/01/12 12:14:31;;;;;;;4.70;1.02;;;;;;;;;;5034270;28;20029;-77
2023/01/12 12:17:03;;;;;;;3.47;0.82;;;;;;;;;;4996747;28;20033;-76
2023/01/12 12:19:48;;;;;;;2.90;0.77;;;;;;;;;;5033758;28;20029;-76
2023/01/12 12:22:23;;;;;;;1.75;0.52;;;;;;;;;;5016240;28;20029;-76
2023/01/12 12:24:53;;;;;;;3.38;0.90;;;;;;;;;;5034071;28;20387;-76
2023/01/12 12:27:23;;;;;;;3.78;0.85;;;;;;;;;;5033960;28;20503;-76
2023/01/12 12:30:08;;;;;;;0.93;0.65;;;;;;;;;;5033874;28;20036;-75
2023/01/12 12:32:34;;;;;;;5.00;0.93;;;;;;;;;;5016691;28;20052;-76
2023/01/12 12:34:59;;;;;;;1.80;1.05;;;;;;;;;;5034469;28;20484;-76
2023/01/12 12:37:41;;;;;;;2.88;0.90;;;;;;;;;;5016164;28;20021;-77
2023/01/12 12:40:13;;;;;;;2.13;0.77;;;;;;;;;;5015920;28;20453;-76
2023/01/12 12:45:34;;;;;;;3.75;0.65;;;;;;;;;;5034537;28;20041;-75
2023/01/12 12:48:03;;;;;;;4.53;0.98;;;;;;;;;;5034202;28;20419;-76
2023/01/12 12:50:29;;;;;;;1.45;0.70;;;;;;;;;;5034597;28;20080;-75
2023/01/12 12:53:02;;;;;;;6.38;1.25;;;;;;;;;;5034796;28;20298;-76
2023/01/12 12:55:28;;;;;;;2.42;0.60;;;;;;;;;;5034044;28;20024;-75
2023/01/12 12:57:57;;;;;;;3.58;1.38;;;;;;;;;;5029864;28;20044;-72
2023/01/12 13:00:41;;;;;;;1.38;0.60;;;;;;;;;;5031449;28;20083;-75
2023/01/12 13:03:07;;;;;;;2.13;0.90;;;;;;;;;;5035449;28;20030;-76
2023/01/12 13:05:47;;;;;;;3.05;0.90;;;;;;;;;;5014301;28;20049;-75
2023/01/12 13:08:17;;;;;;;2.25;0.90;;;;;;;;;;5026331;28;20268;-74
2023/01/12 13:10:54;;;;;;;2.85;1.00;;;;;;;;;;5032621;28;20219;-73
2023/01/12 13:13:27;;;;;;;2.05;0.88;;;;;;;;;;5032995;28;20033;-76
2023/01/12 13:16:12;;;;;;;3.13;0.60;;;;;;;;;;5032471;28;20596;-75
2023/01/12 13:18:50;;;;;;;1.10;0.80;;;;;;;;;;5033741;28;20013;-76
2023/01/12 13:21:26;;;;;;;4.63;0.80;;;;;;;;;;5041832;28;20044;-75
2023/01/12 13:23:52;;;;;;;3.42;1.77;;;;;;;;;;5049324;28;20025;-75
2023/01/12 13:26:30;;;;;;;2.78;1.00;;;;;;;;;;5017014;28;20463;-75
2023/01/12 13:29:15;;;;;;;2.63;0.82;;;;;;;;;;5032587;28;20037;-75
2023/01/12 13:31:41;;;;;;;3.25;0.80;;;;;;;;;;5047689;28;20017;-76
2023/01/12 13:34:36;;;;;;;3.60;0.60;;;;;;;;;;5037554;28;20502;-77
2023/01/12 13:37:21;;;;;;;1.40;0.85;;;;;;;;;;5025086;28;20054;-76
2023/01/12 13:40:10;;;;;;;2.53;1.15;;;;;;;;;;5050115;28;20336;-75
2023/01/12 13:45:21;;;;;;;1.02;0.70;;;;;;;;;;5048295;28;20032;-78
2023/01/12 13:47:49;;;;;;;1.15;0.75;;;;;;;;;;5038968;28;20022;-75
2023/01/12 13:50:20;;;;;;;2.03;0.90;;;;;;;;;;5049075;28;20032;-75
2023/01/12 13:52:56;;;;;;;1.10;0.52;;;;;;;;;;5025669;28;20025;-78
2023/01/12 13:55:23;;;;;;;2.75;1.05;;;;;;;;;;5062962;28;20033;-77
2023/01/12 13:58:03;;;;;;;13.48;5.75;;;;;;;;;;5049803;28;20036;-77
2023/01/12 14:00:34;;;;;;;5.43;2.25;;;;;;;;;;5045653;28;20030;-78
2023/01/12 14:03:01;;;;;;;;;;;;;;;;;;5055908;28;20342;-78
2023/01/12 14:05:27;;;;;;;8.73;3.17;;;;;;;;;;5056371;28;19964;-77
2023/01/12 14:08:09;;;;;;;1.17;1.00;;;;;;;;;;5043025;28;20026;-76
2023/01/12 14:10:35;;;;;;;;;;;;;;;;;;5028112;28;20399;-77
2023/01/12 14:13:16;;;;;;;2.80;1.60;;;;;;;;;;5063607;22;20423;-73
2023/01/12 14:18:29;;;;;;;3.80;2.08;;;;;;;;;;5043098;28;20044;-72
2023/01/12 14:20:58;;;;;;;2.88;1.48;;;;;;;;;;5051261;28;20455;-74
2023/01/12 14:23:29;;;;;;;3.83;1.88;;;;;;;;;;5039820;28;20523;-73
2023/01/12 14:26:13;;;;;;;3.93;1.53;;;;;;;;;;5049915;28;20033;-72
2023/01/12 14:28:41;;;;;;;2.95;1.60;;;;;;;;;;5037554;28;20276;-74
2023/01/12 14:31:14;;;;;;;2.15;1.05;;;;;;;;;;5042556;28;20472;-74
2023/01/12 14:33:40;;;;;;;2.25;1.45;;;;;;;;;;5046572;28;20039;-73
2023/01/12 14:36:11;;;;;;;2.72;1.77;;;;;;;;;;5035613;28;20030;-74
2023/01/12 14:38:40;;;;;;;3.25;1.70;;;;;;;;;;5051990;28;20434;-75
2023/01/12 14:46:23;;;;;;;2.25;1.23;;;;;;;;;;5042948;28;20029;-75
2023/01/12 14:46:46;;;;;;;2.63;0.80;;;;;;;;;;5038019;28;20116;-75
2023/01/12 14:49:19;;;;;;;3.75;1.15;;;;;;;;;;5041160;28;20399;-75
2023/01/12 14:52:05;;;;;;;4.47;1.00;;;;;;;;;;5046674;28;20053;-73
2023/01/12 14:54:32;;;;;;;1.35;0.63;;;;;;;;;;5026106;28;20035;-74
2023/01/12 14:57:00;;;;;;;2.30;1.30;;;;;;;;;;5043483;28;20040;-72
2023/01/12 14:59:30;;;;;;;3.03;1.42;;;;;;;;;;5044905;28;20406;-76
2023/01/12 15:02:15;;;;;;;1.65;0.93;;;;;;;;;;5036210;28;20029;-76
2023/01/12 15:04:56;;;;;;;3.70;1.85;;;;;;;;;;5021753;28;20063;-75
2023/01/12 15:07:22;;;;;;;1.25;0.60;;;;;;;;;;5040993;28;20025;-74
2023/01/12 15:09:59;;;;;;;2.97;1.17;;;;;;;;;;5048956;28;20021;-74
2023/01/12 15:12:27;;;;;;;1.83;1.05;;;;;;;;;;5037741;28;20055;-74
2023/01/12 15:14:54;;;;;;;2.63;1.08;;;;;;;;;;5045882;28;20446;-75
2023/01/12 15:25:42;;;;;;;1.17;0.80;;;;;;;;;;5016013;28;20022;-75
2023/01/12 15:28:08;;;;;;;1.00;0.77;;;;;;;;;;5055477;28;20052;-74
2023/01/12 15:30:36;;;;;;;2.53;0.85;;;;;;;;;;5044337;28;20019;-75
2023/01/12 15:33:03;;;;;;;2.85;1.40;;;;;;;;;;5047075;28;20087;-75
2023/01/12 15:35:29;;;;;;;1.88;1.35;;;;;;;;;;5037123;28;20040;-75
2023/01/12 15:37:56;;;;;;;2.92;0.90;;;;;;;;;;5029608;28;20025;-77
2023/01/12 15:40:23;;;;;;;3.00;1.10;;;;;;;;;;5049639;28;20497;-73
2023/01/12 15:42:52;;;;;;;2.88;1.02;;;;;;;;;;5050212;28;20028;-74
2023/01/12 15:45:18;;;;;;;3.88;1.60;;;;;;;;;;5049523;28;20107;-73
2023/01/12 15:47:44;;;;;;;2.88;1.40;;;;;;;;;;5035864;28;20464;-74
2023/01/12 15:50:10;;;;;;;0.98;0.70;;;;;;;;;;5047603;28;20021;-74